createdAt,value
2019-02-14T00:00:29.042Z,87.40
2019-02-14T00:02:58.709Z,87.50
2019-02-14T00:05:28.508Z,87.60
2019-02-14T00:07:58.399Z,87.40
2019-02-14T00:10:28.298Z,87.30
2019-02-14T00:12:57.962Z,87.00
2019-02-14T00:15:27.643Z,87.20
2019-02-14T00:17:59.535Z,87.30
2019-02-14T00:20:29.635Z,87.30
2019-02-14T00:22:59.696Z,87.50
2019-02-14T00:25:29.320Z,87.50
2019-02-14T00:27:59.152Z,87.70
2019-02-14T00:30:29.243Z,87.60
2019-02-14T00:33:00.416Z,87.40
2019-02-14T00:35:31.398Z,87.70
2019-02-14T00:38:01.430Z,87.50
2019-02-14T00:40:32.249Z,87.40
2019-02-14T00:43:01.957Z,87.40
2019-02-14T00:45:32.041Z,87.50
2019-02-14T00:48:01.759Z,87.40
2019-02-14T00:50:31.513Z,87.60
2019-02-14T00:53:01.303Z,88.00
2019-02-14T00:55:31.879Z,87.60
2019-02-14T00:58:02.177Z,87.50
2019-02-14T01:00:31.939Z,87.50
2019-02-14T01:03:02.428Z,87.50
2019-02-14T01:08:16.931Z,87.70
2019-02-14T01:10:48.286Z,87.80
2019-02-14T01:13:18.331Z,87.50
2019-02-14T01:15:48.407Z,87.30
2019-02-14T01:18:18.429Z,87.30
2019-02-14T01:20:48.436Z,87.50
2019-02-14T01:23:18.998Z,87.60
2019-02-14T01:25:48.735Z,87.80
2019-02-14T01:28:18.757Z,87.20
2019-02-14T01:30:48.530Z,87.50
2019-02-14T01:33:18.377Z,87.60
2019-02-14T01:35:48.084Z,87.60
2019-02-14T01:38:17.699Z,87.90
2019-02-14T01:40:47.623Z,87.90
2019-02-14T01:43:17.275Z,88.00
2019-02-14T01:45:47.126Z,88.00
2019-02-14T01:48:16.708Z,87.80
2019-02-14T01:50:47.022Z,88.00
2019-02-14T01:53:16.792Z,88.00
2019-02-14T01:55:46.765Z,88.00
2019-02-14T01:58:16.853Z,88.10
2019-02-14T02:00:47.141Z,88.10
2019-02-14T02:03:16.807Z,88.30
2019-02-14T02:05:50.794Z,88.20
2019-02-14T02:08:18.059Z,88.00
2019-02-14T02:10:48.019Z,88.10
2019-02-14T02:13:18.633Z,88.10
2019-02-14T02:15:48.418Z,88.00
2019-02-14T02:18:18.893Z,88.20
2019-02-14T02:20:48.629Z,88.30
2019-02-14T02:23:18.807Z,88.20
2019-02-14T02:25:50.004Z,88.20
2019-02-14T02:28:20.613Z,88.30
2019-02-14T02:30:50.990Z,88.30
2019-02-14T02:33:22.745Z,88.50
2019-02-14T02:36:00.239Z,88.60
2019-02-14T02:38:23.852Z,88.20
2019-02-14T02:40:54.363Z,88.10
2019-02-14T02:43:24.265Z,87.90
2019-02-14T02:45:54.223Z,88.10
2019-02-14T02:48:23.860Z,88.10
2019-02-14T02:50:53.525Z,87.90
2019-02-14T02:53:23.182Z,87.90
2019-02-14T02:55:52.875Z,87.80
2019-02-14T02:58:22.720Z,88.00
2019-02-14T03:00:52.500Z,88.20
2019-02-14T03:03:22.525Z,88.20
2019-02-14T03:05:52.599Z,88.20
2019-02-14T03:08:22.671Z,88.40
2019-02-14T03:10:54.133Z,88.10
2019-02-14T03:13:24.264Z,87.80
2019-02-14T03:15:54.204Z,87.80
2019-02-14T03:18:24.070Z,87.80
2019-02-14T03:20:53.762Z,88.20
2019-02-14T03:23:23.780Z,88.00
2019-02-14T03:25:53.858Z,87.90
2019-02-14T03:28:23.732Z,88.30
2019-02-14T03:30:53.894Z,88.00
2019-02-14T03:33:24.229Z,87.90
2019-02-14T03:35:54.168Z,88.00
2019-02-14T03:38:23.830Z,88.00
2019-02-14T03:40:53.794Z,87.90
2019-02-14T03:43:23.359Z,87.80
2019-02-14T03:45:53.216Z,88.10
2019-02-14T03:48:24.928Z,87.90
2019-02-14T03:50:55.154Z,87.90
2019-02-14T03:53:24.944Z,87.80
2019-02-14T03:55:54.680Z,87.90
2019-02-14T03:58:24.395Z,88.00
2019-02-14T04:00:54.758Z,87.80
2019-02-14T04:03:24.601Z,87.90
2019-02-14T04:05:54.403Z,87.70
2019-02-14T04:08:24.204Z,87.70
2019-02-14T04:10:54.251Z,87.80
2019-02-14T04:13:24.177Z,87.90
2019-02-14T04:15:54.777Z,87.80
2019-02-14T04:18:24.418Z,87.90
2019-02-14T04:20:54.138Z,87.90
2019-02-14T04:23:23.954Z,87.60
2019-02-14T04:25:53.696Z,87.70
2019-02-14T04:28:23.627Z,87.80
2019-02-14T04:30:53.430Z,88.20
2019-02-14T04:33:23.114Z,87.90
2019-02-14T04:35:53.138Z,87.60
2019-02-14T04:38:23.167Z,87.80
2019-02-14T04:40:53.568Z,87.90
2019-02-14T04:43:23.818Z,87.90
2019-02-14T04:45:53.777Z,88.10
2019-02-14T04:48:23.849Z,87.70
2019-02-14T04:50:53.738Z,87.90
2019-02-14T04:53:23.372Z,88.10
2019-02-14T04:55:53.281Z,87.80
2019-02-14T04:58:23.717Z,87.80
2019-02-14T05:00:54.013Z,87.70
2019-02-14T05:03:23.842Z,87.90
2019-02-14T05:05:53.451Z,87.80
2019-02-14T05:08:23.369Z,87.60
2019-02-14T05:10:53.207Z,87.70
2019-02-14T05:13:23.112Z,87.90
2019-02-14T05:15:53.284Z,87.80
2019-02-14T05:18:23.110Z,87.90
2019-02-14T05:20:52.895Z,88.10
2019-02-14T05:23:23.225Z,87.80
2019-02-14T05:25:53.339Z,87.90
2019-02-14T05:28:23.143Z,87.80
2019-02-14T05:30:52.954Z,88.00
2019-02-14T05:33:22.629Z,88.00
2019-02-14T05:35:52.291Z,88.40
2019-02-14T05:38:21.987Z,87.80
2019-02-14T05:40:51.951Z,87.80
2019-02-14T05:43:22.275Z,87.40
2019-02-14T05:45:53.497Z,87.80
2019-02-14T05:48:23.557Z,87.70
2019-02-14T05:50:53.618Z,87.90
2019-02-14T05:53:23.670Z,88.30
2019-02-14T05:55:54.054Z,88.10
2019-02-14T05:58:24.023Z,88.30
2019-02-14T06:00:54.162Z,88.40
2019-02-14T06:03:24.308Z,88.60
2019-02-14T06:05:54.544Z,88.50
2019-02-14T06:08:24.500Z,88.70
2019-02-14T06:10:54.167Z,88.40
2019-02-14T06:13:23.807Z,87.90
2019-02-14T06:15:53.592Z,87.60
2019-02-14T06:18:23.499Z,87.40
2019-02-14T06:20:54.184Z,87.70
2019-02-14T06:23:24.257Z,87.70
2019-02-14T06:25:53.891Z,87.70
2019-02-14T06:28:23.865Z,88.10
2019-02-14T06:30:53.552Z,88.60
2019-02-14T06:33:23.269Z,88.60
2019-02-14T06:35:53.410Z,88.60
2019-02-14T06:38:23.201Z,88.70
2019-02-14T06:40:52.937Z,88.50
2019-02-14T06:43:22.697Z,88.70
2019-02-14T06:45:53.000Z,88.50
2019-02-14T06:48:22.768Z,88.90
2019-02-14T06:50:52.512Z,89.10
2019-02-14T06:53:22.364Z,89.20
2019-02-14T06:55:52.411Z,89.00
2019-02-14T06:58:22.618Z,88.90
2019-02-14T07:00:52.372Z,89.30
2019-02-14T07:03:22.359Z,88.90
2019-02-14T07:05:52.630Z,89.00
2019-02-14T07:08:22.658Z,88.90
2019-02-14T07:10:52.526Z,89.20
2019-02-14T07:13:22.962Z,88.90
2019-02-14T07:15:53.335Z,89.20
2019-02-14T07:18:23.023Z,89.30
2019-02-14T07:20:53.414Z,88.90
2019-02-14T07:23:23.157Z,89.20
2019-02-14T07:25:53.447Z,89.20
2019-02-14T07:28:23.387Z,89.20
2019-02-14T07:30:53.453Z,89.20
2019-02-14T07:33:23.343Z,88.80
2019-02-14T07:35:53.767Z,88.90
2019-02-14T07:38:23.443Z,89.00
2019-02-14T07:40:54.501Z,88.20
2019-02-14T07:43:24.520Z,88.60
2019-02-14T07:45:55.557Z,89.00
2019-02-14T07:48:25.490Z,89.10
2019-02-14T07:50:55.198Z,88.80
2019-02-14T07:53:24.849Z,88.70
2019-02-14T07:55:54.450Z,88.20
2019-02-14T07:58:24.739Z,88.50
2019-02-14T08:00:54.785Z,88.20
2019-02-14T08:03:25.036Z,88.50
2019-02-14T08:05:55.229Z,87.90
2019-02-14T08:08:25.640Z,88.40
2019-02-14T08:10:55.764Z,88.60
2019-02-14T08:13:25.808Z,88.60
2019-02-14T08:15:56.001Z,88.30
2019-02-14T08:18:25.966Z,88.50
2019-02-14T08:20:56.031Z,87.90
2019-02-14T08:23:26.075Z,88.50
2019-02-14T08:25:55.844Z,88.50
2019-02-14T08:28:26.137Z,88.80
2019-02-14T08:30:55.831Z,88.70
2019-02-14T08:33:25.474Z,88.40
2019-02-14T08:35:55.375Z,88.40
2019-02-14T08:38:25.478Z,88.50
2019-02-14T08:40:55.378Z,88.50
2019-02-14T08:43:26.484Z,88.60
2019-02-14T08:45:56.495Z,88.60
2019-02-14T08:48:27.033Z,88.40
2019-02-14T08:50:57.567Z,88.40
2019-02-14T08:53:27.251Z,88.70
2019-02-14T08:55:56.931Z,88.20
2019-02-14T08:58:26.874Z,88.60
2019-02-14T09:00:56.601Z,88.10
2019-02-14T09:03:26.801Z,87.70
2019-02-14T09:05:56.687Z,87.30
2019-02-14T09:08:26.604Z,87.60
2019-02-14T09:10:56.614Z,87.40
2019-02-14T09:13:26.415Z,87.60
2019-02-14T09:15:57.098Z,87.60
2019-02-14T09:18:26.999Z,87.10
2019-02-14T09:20:56.643Z,87.00
2019-02-14T09:23:26.324Z,87.40
2019-02-14T09:25:56.232Z,87.40
2019-02-14T09:28:26.270Z,87.40
2019-02-14T09:31:01.223Z,87.10
2019-02-14T09:33:30.920Z,87.50
2019-02-14T09:36:00.929Z,87.10
2019-02-14T09:38:30.627Z,86.60
2019-02-14T09:41:00.279Z,86.50
2019-02-14T09:43:30.668Z,86.90
2019-02-14T09:46:00.536Z,86.70
2019-02-14T09:48:30.621Z,85.90
2019-02-14T09:51:00.834Z,86.10
2019-02-14T09:53:30.659Z,86.50
2019-02-14T09:56:00.524Z,85.90
2019-02-14T09:58:30.655Z,85.60
2019-02-14T10:01:01.228Z,85.50
2019-02-14T10:03:30.993Z,85.10
2019-02-14T10:06:01.182Z,85.00
2019-02-14T10:08:31.286Z,85.50
2019-02-14T10:11:01.367Z,85.10
2019-02-14T10:13:31.365Z,84.80
2019-02-14T10:16:02.060Z,84.40
2019-02-14T10:18:32.106Z,84.10
2019-02-14T10:21:02.490Z,84.30
2019-02-14T10:23:32.766Z,83.90
2019-02-14T10:26:02.635Z,83.80
2019-02-14T10:28:32.790Z,83.80
2019-02-14T10:31:02.652Z,83.50
2019-02-14T10:33:32.627Z,83.50
2019-02-14T10:36:04.418Z,83.10
2019-02-14T10:38:34.842Z,82.90
2019-02-14T10:41:04.929Z,82.80
2019-02-14T10:43:34.970Z,82.50
2019-02-14T10:46:04.748Z,82.50
2019-02-14T10:48:34.912Z,81.90
2019-02-14T10:51:05.073Z,81.40
2019-02-14T10:53:34.851Z,81.40
2019-02-14T10:56:04.887Z,81.20
2019-02-14T10:58:36.297Z,80.70
2019-02-14T11:01:07.455Z,80.50
2019-02-14T11:03:37.288Z,80.10
2019-02-14T11:06:07.054Z,79.30
2019-02-14T11:08:37.867Z,78.60
2019-02-14T11:11:08.578Z,79.00
2019-02-14T11:13:38.643Z,79.10
2019-02-14T11:16:10.002Z,79.10
2019-02-14T11:18:44.356Z,78.40
2019-02-14T11:21:11.718Z,78.30
2019-02-14T11:23:41.760Z,77.90
2019-02-14T11:26:11.926Z,78.50
2019-02-14T11:28:41.732Z,78.50
2019-02-14T11:31:11.837Z,79.00
2019-02-14T11:33:42.481Z,78.20
2019-02-14T11:36:12.368Z,77.40
2019-02-14T11:38:42.176Z,77.20
2019-02-14T11:41:12.220Z,76.80
2019-02-14T11:43:42.426Z,75.20
2019-02-14T11:46:12.838Z,74.70
2019-02-14T11:48:42.841Z,74.70
2019-02-14T11:53:42.439Z,72.40
2019-02-14T11:56:12.739Z,73.40
2019-02-14T11:58:42.578Z,71.70
2019-02-14T12:01:12.897Z,71.10
2019-02-14T12:03:43.019Z,70.40
2019-02-14T12:06:17.576Z,70.00
2019-02-14T12:08:57.789Z,70.20
2019-02-14T12:11:18.146Z,68.70
2019-02-14T12:13:48.242Z,69.00
2019-02-14T12:16:18.646Z,69.30
2019-02-14T12:18:49.263Z,68.50
2019-02-14T12:21:19.527Z,70.00
2019-02-14T12:23:49.792Z,68.80
2019-02-14T12:26:20.601Z,68.30
2019-02-14T12:28:50.880Z,66.20
2019-02-14T12:31:21.470Z,67.30
2019-02-14T12:33:51.246Z,67.30
2019-02-14T12:36:21.284Z,67.70
2019-02-14T12:38:51.401Z,66.40
2019-02-14T12:41:21.617Z,66.40
2019-02-14T12:43:51.756Z,66.30
2019-02-14T12:46:21.778Z,65.90
2019-02-14T12:48:52.205Z,65.30
2019-02-14T12:51:22.767Z,65.40
2019-02-14T12:53:53.300Z,65.30
2019-02-14T12:56:23.661Z,65.30
2019-02-14T12:58:53.832Z,63.60
2019-02-14T13:01:25.029Z,64.80
2019-02-14T13:03:54.919Z,64.00
2019-02-14T13:06:25.511Z,64.00
2019-02-14T13:08:56.144Z,64.50
2019-02-14T13:11:26.677Z,63.40
2019-02-14T13:13:56.708Z,62.40
2019-02-14T13:16:27.326Z,61.10
2019-02-14T13:18:57.352Z,60.80
2019-02-14T13:21:27.430Z,60.70
2019-02-14T13:23:57.452Z,60.90
2019-02-14T13:26:27.755Z,58.60
2019-02-14T13:28:57.901Z,56.80
2019-02-14T13:31:32.159Z,57.70
2019-02-14T13:33:59.360Z,59.20
2019-02-14T13:36:29.864Z,59.00
2019-02-14T13:39:00.213Z,60.30
2019-02-14T13:41:31.400Z,60.00
2019-02-14T13:44:02.814Z,59.70
2019-02-14T13:46:33.495Z,60.10
2019-02-14T13:49:03.697Z,59.00
2019-02-14T13:51:33.472Z,57.20
2019-02-14T13:54:03.234Z,55.40
2019-02-14T13:56:33.205Z,56.50
2019-02-14T13:59:03.161Z,57.70
2019-02-14T14:01:32.923Z,57.50
2019-02-14T14:04:02.997Z,58.20
2019-02-14T14:06:33.199Z,58.10
2019-02-14T14:09:04.340Z,55.20
2019-02-14T14:11:34.524Z,57.00
2019-02-14T14:14:04.263Z,55.90
2019-02-14T14:16:34.248Z,54.60
2019-02-14T14:19:06.434Z,57.30
2019-02-14T14:21:35.474Z,55.80
2019-02-14T14:24:05.715Z,56.10
2019-02-14T14:26:35.535Z,54.50
2019-02-14T14:29:06.246Z,54.30
2019-02-14T14:31:35.965Z,55.90
2019-02-14T14:34:05.879Z,54.80
2019-02-14T14:36:35.827Z,55.20
2019-02-14T14:39:06.839Z,57.00
2019-02-14T14:41:37.459Z,57.90
2019-02-14T14:44:19.743Z,58.00
2019-02-14T14:46:59.532Z,56.00
2019-02-14T14:49:29.987Z,56.60
2019-02-14T14:52:00.273Z,57.80
2019-02-14T14:54:30.390Z,56.60
2019-02-14T14:57:00.714Z,55.20
2019-02-14T14:59:30.718Z,55.70
2019-02-14T15:02:01.028Z,56.90
2019-02-14T15:04:31.693Z,54.80
2019-02-14T15:07:01.972Z,57.60
2019-02-14T15:09:32.096Z,57.70
2019-02-14T15:12:02.215Z,58.40
2019-02-14T15:14:32.314Z,57.60
2019-02-14T15:17:02.434Z,57.40
2019-02-14T15:19:32.636Z,57.30
2019-02-14T15:22:02.784Z,58.70
2019-02-14T15:24:32.776Z,59.50
2019-02-14T15:27:03.194Z,59.00
2019-02-14T15:29:33.701Z,59.50
2019-02-14T15:32:04.229Z,60.10
2019-02-14T15:34:34.307Z,60.30
2019-02-14T15:37:04.531Z,59.80
2019-02-14T15:39:34.836Z,60.00
2019-02-14T15:42:04.966Z,60.40
2019-02-14T15:44:34.989Z,61.10
2019-02-14T15:47:05.113Z,61.40
2019-02-14T15:49:35.175Z,59.60
2019-02-14T15:52:05.987Z,61.50
2019-02-14T15:54:36.624Z,61.70
2019-02-14T15:57:06.687Z,62.40
2019-02-14T15:59:36.981Z,62.40
2019-02-14T16:02:08.452Z,62.80
2019-02-14T16:04:39.086Z,63.20
2019-02-14T16:07:09.417Z,63.60
2019-02-14T16:09:41.343Z,64.40
2019-02-14T16:12:10.873Z,64.50
2019-02-14T16:14:42.596Z,65.30
2019-02-14T16:17:13.750Z,65.60
2019-02-14T16:19:43.768Z,65.60
2019-02-14T16:22:15.692Z,66.30
2019-02-14T16:24:46.465Z,66.80
2019-02-14T16:27:16.797Z,67.30
2019-02-14T16:29:48.948Z,67.70
2019-02-14T16:32:19.000Z,68.30
2019-02-14T16:34:48.822Z,68.50
2019-02-14T16:37:18.709Z,68.80
2019-02-14T16:39:51.849Z,69.20
2019-02-14T16:42:21.614Z,69.20
2019-02-14T16:44:52.012Z,69.30
2019-02-14T16:47:42.627Z,69.30
2019-02-14T16:50:12.663Z,69.40
2019-02-14T16:52:42.556Z,69.60
2019-02-14T16:55:12.767Z,69.70
2019-02-14T16:57:42.921Z,70.00
2019-02-14T17:00:12.995Z,70.30
2019-02-14T17:02:42.660Z,70.20
2019-02-14T17:05:12.527Z,70.30
2019-02-14T17:07:43.005Z,70.70
2019-02-14T17:10:13.015Z,70.90
2019-02-14T17:12:43.354Z,71.10
2019-02-14T17:15:13.100Z,71.20
2019-02-14T17:17:42.855Z,71.30
2019-02-14T17:20:13.256Z,71.50
2019-02-14T17:22:42.869Z,71.60
2019-02-14T17:25:12.656Z,71.70
2019-02-14T17:27:43.761Z,71.70
2019-02-14T17:30:13.859Z,72.10
2019-02-14T17:32:44.024Z,72.10
2019-02-14T17:35:14.327Z,71.90
2019-02-14T17:37:44.407Z,72.00
2019-02-14T17:40:14.484Z,72.00
2019-02-14T17:42:44.435Z,72.10
2019-02-14T17:45:14.432Z,72.20
2019-02-14T17:47:44.572Z,72.40
2019-02-14T17:50:14.330Z,72.70
2019-02-14T17:52:44.295Z,72.50
2019-02-14T17:55:14.482Z,72.70
2019-02-14T17:57:44.726Z,72.80
2019-02-14T18:00:14.766Z,72.80
2019-02-14T18:02:44.993Z,73.20
2019-02-14T18:05:15.222Z,73.50
2019-02-14T18:07:45.461Z,73.50
2019-02-14T18:10:15.386Z,73.60
2019-02-14T18:12:45.200Z,73.60
2019-02-14T18:15:15.724Z,73.60
2019-02-14T18:17:45.657Z,73.80
2019-02-14T18:20:15.279Z,73.80
2019-02-14T18:22:44.931Z,74.10
2019-02-14T18:25:15.288Z,74.10
2019-02-14T18:27:45.874Z,74.20
2019-02-14T18:30:15.996Z,74.00
2019-02-14T18:32:47.539Z,74.20
2019-02-14T18:35:17.459Z,74.40
2019-02-14T18:37:47.212Z,74.70
2019-02-14T18:40:17.046Z,74.60
2019-02-14T18:42:47.026Z,75.00
2019-02-14T18:45:16.948Z,75.40
2019-02-14T18:47:50.838Z,75.00
2019-02-14T18:50:21.658Z,75.50
2019-02-14T18:52:53.112Z,75.50
2019-02-14T18:55:25.342Z,75.80
2019-02-14T18:57:56.151Z,75.80
2019-02-14T19:00:26.860Z,76.20
2019-02-14T19:02:57.017Z,76.40
2019-02-14T19:05:27.820Z,76.50
2019-02-14T19:07:57.920Z,76.40
2019-02-14T19:10:28.766Z,76.60
2019-02-14T19:12:58.884Z,77.00
2019-02-14T19:15:28.826Z,76.40
2019-02-14T19:17:59.120Z,77.10
2019-02-14T19:20:29.879Z,77.50
2019-02-14T19:23:00.018Z,77.40
2019-02-14T19:25:29.968Z,77.70
2019-02-14T19:28:00.208Z,77.80
2019-02-14T19:30:30.636Z,77.40
2019-02-14T19:33:02.114Z,78.20
2019-02-14T19:35:33.090Z,77.80
2019-02-14T19:38:04.400Z,78.00
2019-02-14T19:40:35.405Z,78.30
2019-02-14T19:43:10.526Z,77.70
2019-02-14T19:45:45.540Z,78.60
2019-02-14T19:48:16.859Z,78.40
2019-02-14T19:50:47.202Z,78.30
2019-02-14T19:53:17.205Z,78.30
2019-02-14T19:55:49.810Z,78.10
2019-02-14T19:58:24.847Z,78.00
2019-02-14T20:00:54.743Z,78.30
2019-02-14T20:03:25.312Z,78.70
2019-02-14T20:05:55.383Z,78.30
2019-02-14T20:08:26.920Z,78.70
2019-02-14T20:10:57.107Z,78.40
2019-02-14T20:13:27.063Z,78.30
2019-02-14T20:15:57.109Z,78.40
2019-02-14T20:18:27.100Z,78.70
2019-02-14T20:20:58.187Z,78.50
2019-02-14T20:23:29.373Z,78.70
2019-02-14T20:25:59.907Z,78.40
2019-02-14T20:28:30.233Z,78.90
2019-02-14T20:31:00.386Z,79.00
2019-02-14T20:33:30.533Z,79.10
2019-02-14T20:36:00.996Z,78.70
2019-02-14T20:38:31.430Z,78.90
2019-02-14T20:41:02.378Z,79.20
2019-02-14T20:43:32.556Z,79.00
2019-02-14T20:46:03.292Z,78.90
2019-02-14T20:48:33.463Z,79.40
2019-02-14T20:51:03.286Z,79.80
2019-02-14T20:53:33.645Z,79.40
2019-02-14T20:56:03.747Z,79.60
2019-02-14T20:58:33.996Z,79.60
2019-02-14T21:01:08.255Z,79.20
2019-02-14T21:03:38.591Z,80.00
2019-02-14T21:06:11.842Z,80.00
2019-02-14T21:08:41.785Z,80.00
2019-02-14T21:11:13.068Z,80.20
2019-02-14T21:13:43.538Z,80.10
2019-02-14T21:16:13.400Z,80.40
2019-02-14T21:18:43.891Z,80.40
2019-02-14T21:21:14.011Z,80.40
2019-02-14T21:23:45.267Z,80.30
2019-02-14T21:26:15.548Z,80.30
2019-02-14T21:28:45.559Z,80.50
2019-02-14T21:31:15.550Z,80.50
2019-02-14T21:33:45.523Z,80.30
2019-02-14T21:36:15.627Z,80.30
2019-02-14T21:38:46.111Z,80.50
2019-02-14T21:41:16.239Z,80.30
2019-02-14T21:43:46.221Z,80.20
2019-02-14T21:46:17.467Z,80.10
2019-02-14T21:48:47.670Z,80.30
2019-02-14T21:51:17.607Z,80.20
2019-02-14T21:53:47.701Z,80.60
2019-02-14T21:56:17.709Z,80.50
2019-02-14T21:58:49.792Z,80.40
2019-02-14T22:01:22.685Z,80.40
2019-02-14T22:03:53.536Z,80.70
2019-02-14T22:06:24.392Z,80.70
2019-02-14T22:08:54.698Z,80.80
2019-02-14T22:11:25.585Z,81.00
2019-02-14T22:13:55.862Z,81.30
2019-02-14T22:16:25.836Z,81.20
2019-02-14T22:18:55.696Z,81.20
2019-02-14T22:21:26.519Z,81.00
2019-02-14T22:23:56.397Z,81.00
2019-02-14T22:26:26.399Z,81.20
2019-02-14T22:28:56.699Z,81.30
2019-02-14T22:31:26.699Z,81.60
2019-02-14T22:33:56.884Z,81.60
2019-02-14T22:36:26.795Z,81.10
2019-02-14T22:38:58.700Z,81.30
2019-02-14T22:41:28.925Z,81.20
2019-02-14T22:43:58.739Z,81.20
2019-02-14T22:46:28.640Z,81.30
2019-02-14T22:48:59.070Z,81.40
2019-02-14T22:51:30.420Z,81.10
2019-02-14T22:54:00.333Z,81.20
2019-02-14T22:56:30.431Z,81.00
2019-02-14T22:59:00.700Z,81.20
2019-02-14T23:01:31.464Z,81.40
2019-02-14T23:04:01.746Z,81.50
2019-02-14T23:06:32.383Z,82.00
2019-02-14T23:09:02.388Z,81.70
2019-02-14T23:11:32.668Z,81.60
2019-02-14T23:14:03.253Z,81.60
2019-02-14T23:16:33.263Z,81.40
2019-02-14T23:19:03.288Z,81.60
2019-02-14T23:21:33.366Z,81.80
2019-02-14T23:24:03.478Z,81.70
2019-02-14T23:26:34.765Z,81.90
2019-02-14T23:29:04.827Z,81.90
2019-02-14T23:31:34.725Z,82.10
2019-02-14T23:34:05.743Z,82.20
2019-02-14T23:36:35.902Z,82.20
2019-02-14T23:39:07.006Z,82.20
2019-02-14T23:41:37.103Z,82.00
2019-02-14T23:44:07.095Z,81.70
2019-02-14T23:46:37.106Z,81.70
2019-02-14T23:49:06.822Z,81.80
2019-02-14T23:51:37.267Z,81.80
2019-02-14T23:54:07.423Z,81.90
2019-02-14T23:56:37.383Z,81.90
2019-02-14T23:59:07.342Z,81.80
